createdAt,value
2023-05-11T00:02:44.659Z,7.31
2023-05-11T00:07:47.570Z,7.27
2023-05-11T00:12:51.255Z,7.23
2023-05-11T00:17:54.110Z,7.20
2023-05-11T00:22:56.948Z,7.15
2023-05-11T00:27:59.745Z,7.11
2023-05-11T00:33:02.584Z,7.07
2023-05-11T00:38:05.626Z,7.04
2023-05-11T00:43:08.476Z,6.99
2023-05-11T00:48:11.367Z,6.93
2023-05-11T00:53:14.230Z,6.86
2023-05-11T00:58:17.165Z,6.78
2023-05-11T01:03:20.143Z,6.71
2023-05-11T01:08:48.161Z,6.64
2023-05-11T01:13:56.021Z,6.57
2023-05-11T01:19:13.643Z,6.51
2023-05-11T01:24:27.118Z,6.47
2023-05-11T01:29:39.135Z,6.43
2023-05-11T01:34:43.553Z,6.39
2023-05-11T01:39:54.409Z,6.35
2023-05-11T01:45:00.055Z,6.32
2023-05-11T01:50:06.204Z,6.30
2023-05-11T01:55:10.572Z,6.26
2023-05-11T02:00:16.809Z,6.23
2023-05-11T02:05:22.654Z,6.19
2023-05-11T02:10:27.255Z,6.15
2023-05-11T02:15:31.460Z,6.11
2023-05-11T02:20:36.632Z,6.05
2023-05-11T02:25:41.401Z,6.00
2023-05-11T02:30:52.176Z,5.94
2023-05-11T02:35:56.571Z,5.89
2023-05-11T02:41:04.345Z,5.87
2023-05-11T02:46:14.049Z,5.85
2023-05-11T02:51:19.173Z,5.84
2023-05-11T02:56:24.996Z,5.85
2023-05-11T03:01:30.895Z,5.87
2023-05-11T03:06:34.433Z,5.88
2023-05-11T03:11:37.928Z,5.88
2023-05-11T03:16:41.343Z,5.88
2023-05-11T03:21:45.136Z,5.87
2023-05-11T03:26:50.466Z,5.89
2023-05-11T03:31:54.978Z,5.90
2023-05-11T03:36:59.817Z,5.93
2023-05-11T03:42:05.148Z,5.99
2023-05-11T03:47:09.327Z,6.08
2023-05-11T03:52:12.465Z,6.19
2023-05-11T03:57:16.112Z,6.35
2023-05-11T04:02:18.954Z,6.54
2023-05-11T04:07:21.982Z,6.73
2023-05-11T04:12:24.793Z,6.96
2023-05-11T04:17:27.579Z,7.21
2023-05-11T04:22:30.361Z,7.47
2023-05-11T04:27:37.574Z,7.79
2023-05-11T04:32:40.404Z,10.09
2023-05-11T04:37:43.193Z,14.71
2023-05-11T04:42:46.191Z,18.66
2023-05-11T04:47:49.185Z,21.85
2023-05-11T04:52:51.998Z,24.38
2023-05-11T04:57:54.873Z,26.35
2023-05-11T05:02:57.735Z,26.18
2023-05-11T05:08:00.652Z,23.32
2023-05-11T05:13:03.532Z,20.73
2023-05-11T05:18:06.551Z,18.80
2023-05-11T05:23:09.978Z,17.46
2023-05-11T05:28:12.851Z,16.57
2023-05-11T05:33:15.844Z,16.01
2023-05-11T05:38:18.784Z,15.70
2023-05-11T05:43:21.601Z,15.59
2023-05-11T05:48:24.474Z,15.52
2023-05-11T05:53:27.328Z,15.42
2023-05-11T05:58:30.564Z,15.41
2023-05-11T06:03:33.559Z,15.47
2023-05-11T06:08:36.591Z,15.58
2023-05-11T06:13:39.395Z,15.78
2023-05-11T06:18:42.260Z,16.10
2023-05-11T06:23:55.409Z,16.49
2023-05-11T06:28:58.309Z,18.02
2023-05-11T06:34:01.340Z,21.90
2023-05-11T06:39:06.829Z,25.26
2023-05-11T06:44:09.932Z,27.72
2023-05-11T06:49:12.955Z,29.87
2023-05-11T06:54:16.292Z,31.10
2023-05-11T06:59:19.508Z,31.66
2023-05-11T07:04:22.489Z,32.42
2023-05-11T07:09:25.677Z,32.97
2023-05-11T07:14:28.556Z,32.81
2023-05-11T07:19:31.434Z,32.35
2023-05-11T07:24:34.261Z,31.33
2023-05-11T07:29:37.217Z,31.00
2023-05-11T07:34:41.290Z,31.08
2023-05-11T07:39:44.259Z,31.25
2023-05-11T07:44:49.204Z,31.14
2023-05-11T07:49:52.326Z,31.12
2023-05-11T07:55:00.189Z,30.95
2023-05-11T08:00:05.304Z,31.00
2023-05-11T08:05:09.516Z,31.03
2023-05-11T08:10:16.565Z,30.47
2023-05-11T08:15:19.877Z,30.07
2023-05-11T08:20:23.368Z,29.91
2023-05-11T08:25:26.386Z,29.94
2023-05-11T08:30:30.157Z,29.64
2023-05-11T08:35:34.623Z,29.57
2023-05-11T08:40:37.788Z,29.45
2023-05-11T08:45:44.590Z,29.44
2023-05-11T08:50:50.583Z,29.47
2023-05-11T08:55:55.418Z,29.30
2023-05-11T09:00:59.185Z,28.94
2023-05-11T09:06:07.428Z,28.03
2023-05-11T09:11:10.877Z,27.62
2023-05-11T09:16:28.894Z,27.83
2023-05-11T09:21:39.483Z,27.49
2023-05-11T09:26:42.706Z,25.76
2023-05-11T09:31:47.449Z,24.03
2023-05-11T09:36:58.549Z,22.72
2023-05-11T09:42:13.053Z,21.79
2023-05-11T09:47:20.376Z,21.19
2023-05-11T09:52:24.230Z,20.69
2023-05-11T09:57:37.795Z,20.50
2023-05-11T10:02:42.211Z,20.46
2023-05-11T10:07:58.312Z,20.27
2023-05-11T10:13:04.734Z,20.08
2023-05-11T10:18:08.498Z,20.01
2023-05-11T10:23:12.633Z,20.06
2023-05-11T10:28:17.217Z,20.15
2023-05-11T10:33:22.233Z,20.24
2023-05-11T10:38:25.575Z,20.11
2023-05-11T10:44:17.362Z,19.95
2023-05-11T10:49:38.952Z,19.92
2023-05-11T10:55:02.456Z,19.95
2023-05-11T11:00:16.748Z,19.98
2023-05-11T11:05:34.645Z,19.96
2023-05-11T11:10:59.348Z,19.92
2023-05-11T11:16:04.680Z,19.88
2023-05-11T11:21:16.031Z,19.86
2023-05-11T11:26:50.764Z,19.86
2023-05-11T11:32:25.515Z,19.74
2023-05-11T11:37:32.716Z,19.66
2023-05-11T11:42:50.781Z,19.49
2023-05-11T11:48:10.545Z,19.43
2023-05-11T11:53:36.547Z,19.42
2023-05-11T11:58:46.157Z,19.48
2023-05-11T12:04:13.639Z,19.57
2023-05-11T12:09:19.907Z,19.53
2023-05-11T12:14:23.847Z,19.49
2023-05-11T12:19:26.878Z,19.47
2023-05-11T12:24:30.147Z,19.43
2023-05-11T12:29:32.986Z,19.44
2023-05-11T12:39:40.737Z,19.37
2023-05-11T12:44:44.246Z,19.32
2023-05-11T12:49:47.160Z,19.32
2023-05-11T12:54:55.289Z,19.40
2023-05-11T13:00:16.664Z,19.47
2023-05-11T13:05:25.944Z,19.49
2023-05-11T13:10:30.919Z,19.46
2023-05-11T13:15:33.832Z,19.43
2023-05-11T13:20:38.195Z,19.31
2023-05-11T13:25:54.050Z,19.26
2023-05-11T13:31:01.856Z,19.30
2023-05-11T13:36:05.173Z,19.34
2023-05-11T13:41:10.107Z,19.40
2023-05-11T13:46:12.892Z,19.38
2023-05-11T13:51:16.012Z,19.35
2023-05-11T13:56:21.289Z,19.36
2023-05-11T14:01:24.177Z,19.39
2023-05-11T14:06:27.757Z,19.40
2023-05-11T14:11:31.004Z,19.40
2023-05-11T14:16:35.952Z,19.44
2023-05-11T14:21:38.771Z,19.43
2023-05-11T14:26:42.195Z,19.49
2023-05-11T14:31:45.481Z,19.49
2023-05-11T14:36:50.525Z,19.48
2023-05-11T14:41:53.280Z,19.48
2023-05-11T14:46:56.168Z,19.45
2023-05-11T14:51:59.702Z,19.40
2023-05-11T14:57:03.896Z,19.36
2023-05-11T15:02:07.301Z,19.35
2023-05-11T15:07:10.139Z,19.38
2023-05-11T15:12:12.880Z,19.37
2023-05-11T15:17:17.980Z,19.38
2023-05-11T15:22:22.512Z,19.35
2023-05-11T15:27:27.049Z,19.25
2023-05-11T15:32:30.260Z,19.29
2023-05-11T15:37:33.297Z,19.78
2023-05-11T15:42:36.071Z,19.70
2023-05-11T15:47:41.999Z,19.56
2023-05-11T15:52:47.501Z,19.44
2023-05-11T15:57:50.420Z,19.31
2023-05-11T16:02:53.522Z,19.13
2023-05-11T16:07:56.489Z,19.02
2023-05-11T16:13:00.758Z,18.91
2023-05-11T16:18:05.084Z,18.82
2023-05-11T16:23:08.544Z,18.70
2023-05-11T16:28:11.377Z,18.63
2023-05-11T16:33:14.758Z,18.55
2023-05-11T16:38:19.344Z,18.46
2023-05-11T16:43:22.507Z,18.38
2023-05-11T16:48:27.270Z,18.30
2023-05-11T16:53:30.404Z,18.24
2023-05-11T16:58:33.328Z,18.15
2023-05-11T17:03:36.342Z,18.05
2023-05-11T17:08:41.345Z,17.96
2023-05-11T17:13:44.514Z,17.86
2023-05-11T17:18:47.550Z,17.76
2023-05-11T17:23:50.893Z,17.66
2023-05-11T17:28:54.158Z,17.55
2023-05-11T17:33:57.149Z,17.42
2023-05-11T17:39:01.444Z,17.29
2023-05-11T17:44:05.496Z,17.14
2023-05-11T17:49:10.502Z,16.97
2023-05-11T17:54:15.037Z,16.80
2023-05-11T17:59:19.736Z,16.63
2023-05-11T18:04:25.976Z,16.45
2023-05-11T18:09:30.046Z,16.27
2023-05-11T18:14:32.934Z,16.11
2023-05-11T18:19:35.993Z,15.93
2023-05-11T18:24:42.022Z,15.74
2023-05-11T18:29:45.773Z,15.55
2023-05-11T18:34:49.888Z,15.35
2023-05-11T18:39:52.994Z,15.16
2023-05-11T18:44:57.261Z,14.96
2023-05-11T18:50:00.784Z,14.78
2023-05-11T18:55:04.238Z,14.61
2023-05-11T19:00:07.870Z,14.46
2023-05-11T19:05:11.224Z,14.30
2023-05-11T19:10:13.999Z,14.14
2023-05-11T19:15:16.951Z,13.98
2023-05-11T19:20:20.143Z,13.85
2023-05-11T19:25:23.383Z,13.74
2023-05-11T19:30:28.657Z,13.62
2023-05-11T19:35:32.711Z,13.52
2023-05-11T19:40:45.819Z,13.42
2023-05-11T19:45:49.107Z,13.27
2023-05-11T19:50:52.105Z,13.10
2023-05-11T19:55:54.980Z,12.94
2023-05-11T20:00:58.820Z,12.78
2023-05-11T20:06:01.682Z,12.64
2023-05-11T20:11:05.274Z,12.51
2023-05-11T20:16:08.684Z,12.38
2023-05-11T20:21:11.543Z,12.26
2023-05-11T20:26:14.313Z,12.14
2023-05-11T20:31:17.230Z,12.02
2023-05-11T20:36:20.082Z,11.91
2023-05-11T20:41:23.396Z,11.82
2023-05-11T20:46:29.722Z,11.75
2023-05-11T20:51:35.768Z,11.67
2023-05-11T20:56:38.559Z,11.58
2023-05-11T21:01:42.470Z,11.50
2023-05-11T21:06:45.686Z,11.41
2023-05-11T21:11:49.041Z,11.32
2023-05-11T21:16:52.112Z,11.22
2023-05-11T21:21:57.549Z,11.11
2023-05-11T21:27:00.676Z,11.01
2023-05-11T21:32:03.686Z,10.91
2023-05-11T21:37:06.512Z,10.82
2023-05-11T21:42:09.294Z,10.72
2023-05-11T21:47:12.186Z,10.62
2023-05-11T21:52:14.956Z,10.54
2023-05-11T21:57:17.842Z,10.46
2023-05-11T22:02:20.684Z,10.39
2023-05-11T22:07:23.456Z,10.31
2023-05-11T22:12:26.421Z,10.23
2023-05-11T22:17:29.339Z,10.16
2023-05-11T22:22:33.031Z,10.07
2023-05-11T22:27:36.285Z,10.00
2023-05-11T22:32:39.233Z,9.93
2023-05-11T22:37:42.056Z,9.85
2023-05-11T22:42:44.836Z,9.77
2023-05-11T22:47:47.609Z,9.69
2023-05-11T22:52:50.526Z,9.59
2023-05-11T22:57:53.332Z,9.48
2023-05-11T23:02:56.287Z,9.39
2023-05-11T23:08:00.076Z,9.30
2023-05-11T23:13:04.869Z,9.22
2023-05-11T23:18:07.766Z,9.13
2023-05-11T23:23:10.612Z,9.05
2023-05-11T23:28:13.395Z,8.98
2023-05-11T23:33:16.719Z,8.90
2023-05-11T23:38:19.505Z,8.83
2023-05-11T23:43:22.886Z,8.76
2023-05-11T23:48:26.279Z,8.69
2023-05-11T23:53:29.050Z,8.63
2023-05-11T23:58:31.948Z,8.56
